Leslie, Missouri
Current Conditions -  °F | °C
As of 8:15 AM on Sunday 23 Nov 2014 (Local Time) from KFYG Reporting Station
Scattered Clouds Scattered Clouds  
Wind Chill: 54°   Ceiling: Unl
Heat Index: 54°   Visibility: 9mi
Dew Point: 50°   Wind: 10mph
Humidity: 88%   Direction: 120°ESE
Pressure: 29.65"   Gusts: NA
Location:  38.42°N, 91.23°W
Report Text: KFYG 231415Z AUTO 12009KT 9SM FEW075 SCT080 12/10 A2965 RMK AO2
Loading
Personal Weather Stations






























Interactive Weather Map New forecast layout! Learn more

10-Day Weather Forecast

Advertisements
Track Severe Weather on mobile